x

North Channel East (45154) Weather Station

9:00am - Sat 23rd Sep 2017 All times are CDT. -5 hours from GMT.

  • Peak Period 3s
  • Wind
    2mph, 2mph gusts
  • Sea Temp 67°f
  • Air Temp 67°f
  • Sea Pressure 1018.9mb
  • North Channel East
  • North Channel East

More Historic Weather Station data

Upgrade to MSW Pro to gain access to the past 30 days of data for over 8000 Wavebouys and Weather Stations around the globe.

Join

Comparision Forecast

View Surf forecast
   
Sat 09/23 9:00am  -  3s 2 2 mph 1018.9mb 67f 67f
8:00am  -  2s 2 4 mph 1018.3mb 66f 67f
7:00am  -  3s 4 7 mph 1017.8mb 66f 67f
6:00am  -  3s 7 7 mph 1017.7mb 66f 66f
5:00am  -  3s 9 9 mph 1017.4mb 66f 66f
4:00am 0.3ft 3s 4 4 mph 1017.5mb 66f 66f
3:00am 0.3ft 3s 4 4 mph 1016.8mb 66f 66f
2:00am 0.3ft 3s 2 2 mph 1016.6mb 66f 66f
1:00am 0.3ft 3s 4 4 mph 1016.7mb 66f 67f
12:00am 0.3ft 3s 2 2 mph 1017mb 66f 67f
Fri 09/22 11:00pm 0.7ft 3s 2 2 mph 1017.3mb 66f 67f
10:00pm 0.7ft 2s 7 9 mph 1017.5mb 66f 67f
9:00pm 0.7ft 2s 4 4 mph 1017.5mb 66f 68f
8:00pm 1ft 3s 11 13 mph 1016mb 66f 68f
7:00pm 1ft 2s 11 13 mph 1015.9mb 66f 68f
6:00pm 1ft 2s 11 18 mph 1016.3mb 67f 67f
5:00pm 0.7ft 2s  -  4 mph 1016.5mb 68f 71f
4:00pm 0.7ft 2s 4 7 mph 1016.6mb 68f 72f
3:00pm 0.7ft 2s 4 7 mph 1016.3mb 67f 72f
2:00pm 0.3ft 2s 9 9 mph 1016.9mb 68f 73f
1:00pm 0.3ft 2s 7 9 mph 1016.9mb 68f 73f
12:00pm 0.3ft 2s 7 9 mph 1017.5mb 67f 69f
11:00am 0.3ft 2s 7 9 mph 1018.4mb 67f 70f
10:00am 0.3ft 2s 7 9 mph 1018mb 66f 69f
9:00am 0.3ft 2s 4 7 mph 1018.4mb 66f 67f
8:00am 0.3ft 3s 2 2 mph 1018.7mb 66f 68f
7:00am 0.3ft 2s 2 4 mph 1018.7mb 66f 67f
6:00am  -  2s 4 7 mph 1018.5mb 66f 67f
5:00am 0.3ft 2s 4 7 mph 1018.1mb 65f 66f
4:00am 0.3ft 2s 4 4 mph 1017.9mb 66f 67f
3:00am 0.3ft 2s 4 7 mph 1017.7mb 66f 67f
2:00am 0.3ft 2s 9 9 mph 1017.6mb 66f 67f
1:00am 0.7ft 2s 7 9 mph 1017.5mb 66f 67f
12:00am 0.7ft 2s 9 9 mph 1017.4mb 66f 67f
Thu 09/21 11:00pm 0.3ft 2s 9 9 mph 1017.6mb 66f 68f
10:00pm 0.3ft 2s 9 9 mph 1017.8mb 66f 68f
9:00pm 0.3ft 2s 7 7 mph 1018.1mb 67f 68f
8:00pm 0.3ft 2s 4 7 mph 1018.3mb 67f 69f
7:00pm 0.3ft 2s 4 7 mph 1017.9mb 67f 69f
6:00pm 0.3ft 2s 4 7 mph 1017.5mb 66f 68f
5:00pm  -  3s 7 7 mph 1017.3mb 66f 69f
4:00pm 0.3ft 2s 4 4 mph 1017.4mb 66f 69f
3:00pm 0.3ft 2s 4 4 mph 1017.3mb 66f 70f
2:00pm 0.3ft 2s 7 9 mph 1017.3mb 66f 69f
11:00am 0.7ft 2s 2 4 mph 1017.7mb 66f 69f
10:00am 1ft 3s 4 4 mph 1017.6mb 65f 68f
9:00am 1ft 2s 9 11 mph 1017.5mb 65f 68f
8:00am 0.7ft 2s 9 11 mph 1016.8mb 65f 67f
7:00am 0.3ft 2s 7 7 mph 1016.8mb 65f 68f
6:00am 0.3ft 3s 4 7 mph 1015.9mb 64f 66f
5:00am 0.3ft 2s 11 13 mph 1015.4mb 64f 66f
4:00am 0.3ft 2s 7 7 mph 1016.4mb 64f 67f
3:00am 0.3ft 2s 9 11 mph 1016.7mb 64f 65f
2:00am 0.3ft 2s 7 7 mph 1016.7mb 64f 66f
1:00am 0.3ft 2s 9 11 mph 1016.2mb 65f 66f
12:00am 0.3ft 2s 7 9 mph 1016.4mb 65f 66f
Wed 09/20 11:00pm 0.3ft 2s 7 9 mph 1016.1mb 65f 66f
10:00pm 0.3ft 2s 9 9 mph 1015.4mb 65f 66f
9:00pm 0.3ft 2s 4 7 mph 1015.6mb 65f 66f
8:00pm 0.7ft 2s 7 9 mph 1014.9mb 65f 66f
7:00pm 1ft 3s 7 9 mph 1014.8mb 65f 67f
6:00pm 1ft 2s 9 11 mph 1015mb 65f 67f
5:00pm 1.3ft 3s 11 16 mph 1015.4mb 65f 67f
4:00pm 1.6ft 3s 13 16 mph 1014.8mb 65f 67f
3:00pm 1.3ft 3s 18 20 mph 1014.4mb 65f 67f
2:00pm 1.3ft 3s 16 18 mph 1015.1mb 65f 66f
1:00pm 1.3ft 3s 13 16 mph 1016.1mb 65f 65f
12:00pm 1.3ft 3s 13 16 mph 1016.3mb 65f 65f
11:00am 1.3ft 3s 13 16 mph 1016.6mb 65f 65f
10:00am 1.3ft 3s 13 16 mph 1017.1mb 64f 64f
9:00am 1.3ft 3s 13 16 mph 1017.2mb 64f 63f
8:00am 1.3ft 3s 13 16 mph 1017.4mb 64f 63f
7:00am 1ft 3s 13 16 mph 1017.1mb 64f 63f
6:00am 1ft 3s 13 16 mph 1016.9mb 64f 63f
5:00am 1.3ft 3s 13 16 mph 1016mb 65f 63f
4:00am 1ft 3s 13 16 mph 1015.9mb 65f 64f
3:00am 1ft 2s 13 16 mph 1016mb 65f 63f
2:00am 1ft 3s 11 13 mph 1015.7mb 65f 64f
1:00am 1ft 3s 13 16 mph 1016mb 65f 64f
12:00am 1ft 2s 13 16 mph 1016.2mb 65f 64f
Tue 09/19 11:00pm 1ft 2s 11 13 mph 1016.7mb 65f 65f
10:00pm 0.7ft 2s 11 13 mph 1016.9mb 65f 65f
9:00pm 0.3ft 2s 9 11 mph 1017mb 65f 66f
8:00pm 0.3ft 2s 4 7 mph 1017.1mb 65f 66f
7:00pm 0.3ft 2s 4 7 mph 1016.8mb 65f 66f
6:00pm 0.3ft 2s 7 9 mph 1016.5mb 65f 67f
5:00pm 0.3ft 2s 7 9 mph 1016.5mb 65f 67f
4:00pm 0.7ft 2s 7 7 mph 1016.9mb 65f 67f